Time;durP1;ratioP1;P1;durP2;ratioP2;P2;SDS_P1;SDS_P2;PMS_P1;PMS_P2;Temp;Humidity;BMP_temperature;BMP_pressure;BME280_temperature;BME280_humidity;BME280_pressure;Samples;Min_cycle;Max_cycle;Signal;HPM_P1;HPM_P2
2021/03/01 00:01:05;;;;;;;40.90;20.77;;;;;;;4.87;100.00;102919.88;4894984;29;20070;-71
2021/03/01 00:03:32;;;;;;;46.70;22.48;;;;;;;4.83;100.00;102918.09;4911192;29;20593;-72
2021/03/01 00:05:57;;;;;;;45.38;20.30;;;;;;;4.80;100.00;102917.25;4926500;29;20023;-71
2021/03/01 00:08:23;;;;;;;47.90;22.52;;;;;;;4.77;100.00;102912.81;4926421;29;20599;-71
2021/03/01 00:10:49;;;;;;;51.83;22.65;;;;;;;4.74;100.00;102917.28;4931136;29;20111;-71
2021/03/01 00:13:14;;;;;;;56.67;24.77;;;;;;;4.81;100.00;102914.53;4925337;29;20035;-71
2021/03/01 00:15:40;;;;;;;59.30;22.98;;;;;;;4.73;100.00;102908.41;4913045;29;20039;-71
2021/03/01 00:18:06;;;;;;;54.90;24.42;;;;;;;4.71;100.00;102911.94;4909782;29;20131;-72
2021/03/01 00:20:31;;;;;;;51.78;22.80;;;;;;;4.67;100.00;102911.09;4912541;29;20050;-72
2021/03/01 00:22:57;;;;;;;58.70;24.35;;;;;;;4.76;100.00;102910.16;4928641;29;20080;-71
2021/03/01 00:25:22;;;;;;;49.72;23.80;;;;;;;4.70;100.00;102910.19;4929471;29;20034;-71
2021/03/01 00:27:48;;;;;;;51.80;24.77;;;;;;;4.69;100.00;102914.63;4936757;29;20080;-72
2021/03/01 00:30:14;;;;;;;57.22;25.25;;;;;;;4.74;100.00;102912.84;4928055;29;20445;-71
2021/03/01 00:32:39;;;;;;;55.25;24.80;;;;;;;4.68;100.00;102912.88;4928635;29;20062;-71
2021/03/01 00:35:07;;;;;;;64.70;27.55;;;;;;;4.72;100.00;102903.97;4913896;29;20391;-71
2021/03/01 00:37:32;;;;;;;63.80;27.95;;;;;;;4.62;100.00;102907.59;4926021;29;20688;-71
2021/03/01 00:39:58;;;;;;;58.10;27.15;;;;;;;4.61;100.00;102911.13;4927592;29;20031;-72
2021/03/01 00:42:23;;;;;;;68.45;28.60;;;;;;;4.63;100.00;102911.13;4929218;29;20054;-72
2021/03/01 00:44:49;;;;;;;60.15;29.52;;;;;;;4.70;100.00;102913.72;4928187;29;20035;-70
2021/03/01 00:47:14;;;;;;;68.57;28.70;;;;;;;4.62;100.00;102910.25;4929095;29;20582;-72
2021/03/01 00:49:40;;;;;;;73.82;30.60;;;;;;;4.57;100.00;102909.34;4928907;29;20780;-71
2021/03/01 00:52:07;;;;;;;59.83;29.88;;;;;;;4.56;100.00;102912.94;4897349;29;20109;-71
2021/03/01 00:54:32;;;;;;;67.15;29.85;;;;;;;4.45;100.00;102914.72;4910795;29;20047;-71
2021/03/01 00:56:58;;;;;;;72.68;32.47;;;;;;;4.50;100.00;102907.63;4932059;29;20039;-71
2021/03/01 00:59:25;;;;;;;71.32;33.15;;;;;;;4.52;100.00;102900.50;4928888;29;20126;-72
2021/03/01 01:02:03;;;;;;;73.25;33.97;;;;;;;4.38;100.00;102905.03;4914137;29;20337;-71
2021/03/01 01:04:29;;;;;;;80.05;37.17;;;;;;;4.39;100.00;102898.78;4913368;29;20656;-71
2021/03/01 01:06:54;;;;;;;89.53;36.53;;;;;;;4.34;100.00;102905.91;4935948;29;20031;-71
2021/03/01 01:09:20;;;;;;;87.28;37.95;;;;;;;4.28;100.00;102911.25;4917929;29;20040;-71
2021/03/01 01:11:45;;;;;;;81.93;37.40;;;;;;;4.30;100.00;102913.03;4933889;29;20088;-71
2021/03/01 01:14:11;;;;;;;93.07;38.17;;;;;;;4.17;100.00;102907.75;4929722;29;20043;-71
2021/03/01 01:16:37;;;;;;;88.47;37.25;;;;;;;4.21;100.00;102917.47;4928986;29;20038;-71
2021/03/01 01:19:05;;;;;;;87.82;38.30;;;;;;;4.18;100.00;102904.22;4928701;29;20040;-71
2021/03/01 01:21:31;;;;;;;87.07;39.00;;;;;;;4.18;100.00;102910.41;4932121;29;20126;-72
2021/03/01 01:23:56;;;;;;;88.55;38.05;;;;;;;4.14;100.00;102916.59;4926059;29;20130;-71
2021/03/01 01:26:21;;;;;;;102.20;38.97;;;;;;;4.22;100.00;102905.94;4924096;29;20035;-72
2021/03/01 01:28:47;;;;;;;95.13;39.50;;;;;;;4.11;100.00;102899.78;4911513;29;20114;-71
2021/03/01 01:31:13;;;;;;;87.78;38.30;;;;;;;4.05;100.00;102903.34;4919573;29;20032;-72
2021/03/01 01:33:38;;;;;;;102.18;39.30;;;;;;;3.97;100.00;102908.69;4926633;29;20035;-71
2021/03/01 01:36:04;;;;;;;100.97;38.10;;;;;;;4.00;100.00;102911.34;4928617;29;20074;-71
2021/03/01 01:38:29;;;;;;;89.15;36.95;;;;;;;3.95;100.00;102912.25;4927724;29;20044;-71
2021/03/01 01:40:54;;;;;;;96.60;39.08;;;;;;;4.05;100.00;102904.25;4914744;29;20039;-71
2021/03/01 01:43:20;;;;;;;95.60;39.00;;;;;;;3.92;100.00;102899.84;4913838;29;20044;-71
2021/03/01 01:45:45;;;;;;;92.20;39.35;;;;;;;3.87;100.00;102904.28;4907732;29;20032;-71
2021/03/01 01:48:11;;;;;;;99.75;38.15;;;;;;;3.96;100.00;102896.28;4926289;29;20407;-71
2021/03/01 01:50:36;;;;;;;98.50;39.10;;;;;;;3.88;100.00;102897.19;4928753;29;20255;-71
2021/03/01 01:53:02;;;;;;;100.90;40.38;;;;;;;3.89;100.00;102897.19;4928001;29;20043;-71
2021/03/01 01:55:28;;;;;;;92.70;39.08;;;;;;;3.89;100.00;102896.31;4928765;29;20048;-71
2021/03/01 01:57:54;;;;;;;96.22;38.40;;;;;;;3.91;100.00;102906.03;4909211;29;20446;-71
2021/03/01 02:03:28;;;;;;;101.90;36.22;;;;;;;3.88;100.00;102892.78;4926975;29;20027;-71
2021/03/01 02:05:58;;;;;;;91.35;36.88;;;;;;;3.89;100.00;102904.28;4930381;29;20089;-71
2021/03/01 02:09:02;;;;;;;92.90;37.50;;;;;;;3.81;100.00;102904.28;4927062;29;20063;-71
2021/03/01 02:11:39;;;;;;;106.20;38.95;;;;;;;3.98;100.00;102898.94;4927298;29;20056;-71
2021/03/01 02:14:14;;;;;;;112.90;40.13;;;;;;;3.94;100.00;102900.72;4910778;29;20083;-71
2021/03/01 02:16:39;;;;;;;124.30;42.70;;;;;;;3.88;100.00;102900.75;4926527;29;20051;-72
2021/03/01 02:19:05;;;;;;;129.57;43.03;;;;;;;4.00;100.00;102895.41;4926771;29;20042;-71
2021/03/01 02:21:31;;;;;;;111.53;41.45;;;;;;;3.90;100.00;102888.31;4927238;29;20147;-71
2021/03/01 02:23:56;;;;;;;115.65;41.95;;;;;;;3.93;100.00;102896.31;4928492;29;20032;-72
2021/03/01 02:26:34;;;;;;;107.90;39.97;;;;;;;3.90;100.00;102898.94;4916196;29;20044;-72
2021/03/01 02:29:04;;;;;;;109.10;39.67;;;;;;;3.89;100.00;102889.19;4927780;29;20066;-71
2021/03/01 02:31:31;;;;;;;104.65;39.42;;;;;;;4.08;100.00;102888.28;4927750;29;20039;-72
2021/03/01 02:33:59;;;;;;;103.45;38.38;;;;;;;3.99;100.00;102893.63;4926815;29;20549;-71
2021/03/01 02:36:45;;;;;;;96.80;34.88;;;;;;;4.03;100.00;102894.50;4931005;29;20073;-70
2021/03/01 02:39:14;;;;;;;103.60;36.00;;;;;;;3.94;100.00;102879.47;4906194;29;20036;-70
2021/03/01 02:41:40;;;;;;;111.93;38.85;;;;;;;3.99;100.00;102882.13;4908232;29;20051;-71
2021/03/01 02:44:06;;;;;;;109.65;38.97;;;;;;;3.97;100.00;102870.59;4925498;29;20032;-72
2021/03/01 02:46:35;;;;;;;111.45;38.13;;;;;;;3.99;100.00;102872.38;4910182;29;20031;-71
2021/03/01 02:49:01;;;;;;;112.82;38.00;;;;;;;3.98;100.00;102864.41;4904479;29;20042;-71
2021/03/01 02:51:28;;;;;;;105.30;36.75;;;;;;;3.95;100.00;102862.63;4911082;29;20491;-72
2021/03/01 02:53:55;;;;;;;110.15;37.63;;;;;;;3.89;100.00;102859.97;4926899;29;20050;-71
2021/03/01 02:56:21;;;;;;;105.70;36.33;;;;;;;3.85;100.00;102857.34;4928160;29;20681;-71
2021/03/01 02:58:49;;;;;;;102.40;37.05;;;;;;;3.80;100.00;102856.47;4925894;29;20034;-71
2021/03/01 03:01:16;;;;;;;113.22;37.72;;;;;;;3.89;100.00;102865.28;4934418;29;20050;-71
2021/03/01 03:03:44;;;;;;;103.30;35.72;;;;;;;3.88;100.00;102862.66;4927320;29;20040;-71
2021/03/01 03:06:13;;;;;;;117.20;38.03;;;;;;;3.85;100.00;102858.22;4911367;29;20036;-71
2021/03/01 03:08:40;;;;;;;105.95;36.85;;;;;;;3.89;100.00;102857.31;4926001;29;20051;-71
2021/03/01 03:11:06;;;;;;;100.78;36.17;;;;;;;3.83;100.00;102862.66;4933583;29;20106;-71
2021/03/01 03:13:33;;;;;;;121.15;40.63;;;;;;;3.95;100.00;102864.41;4930579;29;20472;-71
2021/03/01 03:16:00;;;;;;;122.32;41.33;;;;;;;3.90;100.00;102859.09;4916098;29;20078;-71
2021/03/01 03:18:26;;;;;;;125.00;41.35;;;;;;;3.87;100.00;102863.53;4929840;29;20031;-71
2021/03/01 03:20:52;;;;;;;129.40;39.40;;;;;;;3.94;100.00;102860.00;4928891;29;20054;-70
2021/03/01 03:23:18;;;;;;;113.32;38.80;;;;;;;3.92;100.00;102862.63;4929963;29;20050;-72
2021/03/01 03:25:43;;;;;;;120.50;39.10;;;;;;;3.85;100.00;102858.22;4935036;29;20170;-70
2021/03/01 03:28:09;;;;;;;108.78;38.78;;;;;;;3.89;100.00;102848.50;4929367;29;20031;-71
2021/03/01 03:30:35;;;;;;;97.72;36.83;;;;;;;3.80;100.00;102857.34;4912912;29;20040;-71
2021/03/01 03:33:02;;;;;;;100.43;34.58;;;;;;;3.75;100.00;102853.84;4929660;29;20506;-71
2021/03/01 03:35:29;;;;;;;100.55;34.67;;;;;;;3.77;100.00;102860.00;4919598;29;20078;-70
2021/03/01 03:37:58;;;;;;;96.07;35.15;;;;;;;3.81;100.00;102859.13;4915708;29;20138;-71
2021/03/01 03:40:25;;;;;;;107.05;37.85;;;;;;;3.77;100.00;102859.13;4913325;29;20027;-70
2021/03/01 03:42:51;;;;;;;97.13;34.60;;;;;;;3.80;100.00;102865.34;4929409;29;20048;-71
2021/03/01 03:45:18;;;;;;;108.07;38.25;;;;;;;3.85;100.00;102855.56;4923464;29;20075;-71
2021/03/01 03:47:46;;;;;;;114.38;39.50;;;;;;;3.84;100.00;102858.22;4927181;29;20509;-71
2021/03/01 03:50:13;;;;;;;123.50;40.58;;;;;;;3.86;100.00;102865.31;4912812;29;20805;-71
2021/03/01 03:52:42;;;;;;;129.35;39.90;;;;;;;3.86;100.00;102865.31;4930903;29;20036;-71
2021/03/01 03:55:13;;;;;;;115.43;40.17;;;;;;;3.75;100.00;102864.47;4930260;29;20611;-71
2021/03/01 03:57:41;;;;;;;115.35;39.35;;;;;;;3.78;100.00;102858.22;4912270;29;20057;-71
2021/03/01 04:00:12;;;;;;;106.75;37.92;;;;;;;3.84;100.00;102867.09;4920595;29;20040;-71
2021/03/01 04:02:39;;;;;;;106.60;38.10;;;;;;;3.82;100.00;102862.69;4930146;29;20054;-71
2021/03/01 04:05:07;;;;;;;112.20;38.67;;;;;;;3.80;100.00;102862.69;4913143;29;20895;-71
2021/03/01 04:07:36;;;;;;;118.95;39.05;;;;;;;3.77;100.00;102864.44;4931785;29;20032;-72
2021/03/01 04:10:07;;;;;;;135.95;44.13;;;;;;;3.79;100.00;102868.88;4929384;29;20492;-71
2021/03/01 04:12:36;;;;;;;134.02;43.60;;;;;;;3.90;100.00;102871.50;4928103;29;20039;-71
2021/03/01 04:15:02;;;;;;;149.00;45.70;;;;;;;3.81;100.00;102861.78;4922227;29;20106;-71
2021/03/01 04:17:29;;;;;;;152.68;46.60;;;;;;;3.88;100.00;102858.22;4925851;29;20044;-72
2021/03/01 04:19:57;;;;;;;150.52;44.17;;;;;;;3.85;100.00;102865.31;4928047;29;20098;-71
2021/03/01 04:22:25;;;;;;;129.38;45.25;;;;;;;3.91;100.00;102866.19;4928981;29;20071;-71
2021/03/01 04:24:52;;;;;;;104.65;38.45;;;;;;;3.90;100.00;102872.38;4929339;29;20035;-71
2021/03/01 04:27:18;;;;;;;105.55;37.38;;;;;;;3.96;100.00;102872.38;4912292;29;20067;-71
2021/03/01 04:29:44;;;;;;;107.35;37.67;;;;;;;3.92;100.00;102867.97;4914639;29;20139;-70
2021/03/01 04:32:10;;;;;;;125.38;40.80;;;;;;;3.85;100.00;102871.50;4927257;29;20173;-70
2021/03/01 04:34:37;;;;;;;131.40;40.78;;;;;;;3.86;100.00;102870.63;4936041;29;20079;-71
2021/03/01 04:37:03;;;;;;;139.57;44.55;;;;;;;3.93;100.00;102869.72;4931088;29;20138;-71
2021/03/01 04:39:28;;;;;;;133.50;42.20;;;;;;;3.77;100.00;102865.31;4911008;29;20065;-71
2021/03/01 04:41:54;;;;;;;133.75;42.42;;;;;;;3.85;100.00;102867.97;4929833;29;20040;-71
2021/03/01 04:44:20;;;;;;;140.63;44.67;;;;;;;3.74;100.00;102865.34;4929005;29;20040;-70
2021/03/01 04:46:48;;;;;;;147.45;43.53;;;;;;;3.73;100.00;102857.38;4928553;29;20040;-71
2021/03/01 04:49:14;;;;;;;146.07;43.83;;;;;;;3.82;100.00;102852.94;4912453;29;20087;-71
2021/03/01 04:51:40;;;;;;;146.73;44.30;;;;;;;3.87;100.00;102860.88;4911441;29;20558;-70
2021/03/01 04:54:09;;;;;;;155.13;45.13;;;;;;;3.81;100.00;102861.78;4927318;29;20031;-71
2021/03/01 04:56:34;;;;;;;151.82;42.80;;;;;;;3.71;100.00;102854.72;4928100;29;20043;-70
2021/03/01 04:59:01;;;;;;;132.45;41.53;;;;;;;3.76;100.00;102852.94;4928911;29;20537;-70
2021/03/01 05:01:27;;;;;;;109.70;37.50;;;;;;;3.77;100.00;102860.00;4929308;29;20039;-71
2021/03/01 05:03:53;;;;;;;114.35;37.25;;;;;;;3.69;100.00;102848.53;4927660;29;20044;-70
2021/03/01 05:06:20;;;;;;;111.30;38.05;;;;;;;3.74;100.00;102854.72;4929344;29;20043;-70
2021/03/01 05:08:47;;;;;;;105.85;35.42;;;;;;;3.83;100.00;102856.44;4911672;29;20035;-71
2021/03/01 05:11:29;;;;;;;104.25;35.33;;;;;;;3.79;100.00;102858.25;4911722;29;20506;-71
2021/03/01 05:13:55;;;;;;;100.30;34.38;;;;;;;3.73;100.00;102860.03;4927247;29;20608;-70
2021/03/01 05:16:23;;;;;;;97.10;32.67;;;;;;;3.83;100.00;102859.09;4926808;29;20115;-71
2021/03/01 05:18:49;;;;;;;89.20;32.85;;;;;;;3.81;100.00;102864.44;4928147;29;20115;-71
2021/03/01 05:21:14;;;;;;;89.20;31.50;;;;;;;3.73;100.00;102860.91;4929356;29;20575;-71
2021/03/01 05:23:39;;;;;;;102.32;32.72;;;;;;;3.79;100.00;102865.31;4910830;29;20070;-71
2021/03/01 05:26:05;;;;;;;95.97;30.67;;;;;;;3.76;100.00;102868.88;4902318;29;20031;-71
2021/03/01 05:28:30;;;;;;;98.13;31.83;;;;;;;3.73;100.00;102863.56;4927074;29;20422;-71
2021/03/01 05:30:56;;;;;;;88.55;31.00;;;;;;;3.72;100.00;102861.78;4928364;29;20058;-71
2021/03/01 05:33:21;;;;;;;74.95;28.05;;;;;;;3.75;100.00;102860.91;4928396;29;20645;-70
2021/03/01 05:35:46;;;;;;;93.65;31.05;;;;;;;3.73;100.00;102863.56;4900520;29;20418;-72
2021/03/01 05:38:12;;;;;;;90.47;30.05;;;;;;;3.63;100.00;102872.44;4911065;29;20050;-71
2021/03/01 05:40:37;;;;;;;92.23;31.30;;;;;;;3.53;100.00;102866.25;4928570;29;20039;-71
2021/03/01 05:43:03;;;;;;;89.97;31.45;;;;;;;3.54;100.00;102867.13;4920300;29;20047;-70
2021/03/01 05:45:29;;;;;;;87.65;30.40;;;;;;;3.54;100.00;102867.13;4929229;29;20188;-70
2021/03/01 05:47:55;;;;;;;114.55;32.33;;;;;;;3.70;100.00;102876.88;4927053;29;20130;-70
2021/03/01 05:50:20;;;;;;;99.30;32.80;;;;;;;3.61;100.00;102874.22;4927380;29;20059;-70
2021/03/01 05:52:49;;;;;;;113.28;37.55;;;;;;;3.54;100.00;102877.75;4927711;29;20090;-71
2021/03/01 05:55:15;;;;;;;119.45;35.60;;;;;;;3.52;100.00;102879.50;4927991;29;20039;-70
2021/03/01 05:57:41;;;;;;;120.10;36.40;;;;;;;3.68;100.00;102881.28;4927449;29;20051;-71
2021/03/01 06:00:08;;;;;;;125.32;36.80;;;;;;;3.61;100.00;102884.84;4929965;29;20034;-71
2021/03/01 06:02:34;;;;;;;96.40;33.15;;;;;;;3.68;100.00;102878.63;4927256;29;20099;-70
2021/03/01 06:05:01;;;;;;;108.45;35.47;;;;;;;3.58;100.00;102885.72;4928053;29;20490;-71
2021/03/01 06:07:27;;;;;;;113.55;34.63;;;;;;;3.62;100.00;102883.94;4915560;29;20031;-71
2021/03/01 06:09:52;;;;;;;130.82;38.63;;;;;;;3.59;100.00;102881.28;4908566;29;20142;-71
2021/03/01 06:12:18;;;;;;;133.25;38.08;;;;;;;3.65;100.00;102887.47;4927926;29;20051;-70
2021/03/01 06:14:43;;;;;;;132.25;40.83;;;;;;;3.54;100.00;102883.06;4926186;29;20031;-71
2021/03/01 06:17:18;;;;;;;135.20;39.45;;;;;;;3.59;100.00;102879.50;4924210;29;20439;-71
2021/03/01 06:19:47;;;;;;;135.55;40.55;;;;;;;3.64;100.00;102888.34;4930762;29;20036;-71
2021/03/01 06:22:13;;;;;;;126.22;39.03;;;;;;;3.68;100.00;102886.59;4927377;29;20043;-71
2021/03/01 06:24:38;;;;;;;130.98;41.30;;;;;;;3.73;100.00;102884.81;4914427;29;20197;-71
2021/03/01 06:27:05;;;;;;;145.38;40.90;;;;;;;3.74;100.00;102889.25;4914006;29;20640;-71
2021/03/01 06:29:31;;;;;;;131.82;41.75;;;;;;;3.67;100.00;102890.13;4915483;29;20542;-71
2021/03/01 06:31:56;;;;;;;137.93;41.30;;;;;;;3.66;100.00;102891.03;4927237;29;20047;-71
2021/03/01 06:34:32;;;;;;;141.52;40.90;;;;;;;3.84;100.00;102898.06;4927420;29;20079;-72
2021/03/01 06:37:05;;;;;;;139.30;40.78;;;;;;;3.70;100.00;102894.56;4927483;29;20038;-71
2021/03/01 06:39:32;;;;;;;138.43;40.55;;;;;;;3.75;100.00;102900.75;4925391;29;20046;-70
2021/03/01 06:42:18;;;;;;;155.10;42.40;;;;;;;3.70;100.00;102902.53;4925962;29;20040;-71
2021/03/01 06:44:46;;;;;;;138.38;41.80;;;;;;;3.63;100.00;102901.66;4901666;29;20039;-70
2021/03/01 06:47:12;;;;;;;154.60;43.03;;;;;;;3.64;100.00;102911.41;4918510;29;20035;-71
2021/03/01 06:49:39;;;;;;;138.57;41.83;;;;;;;3.53;100.00;102915.81;4931444;29;20051;-71
2021/03/01 06:52:06;;;;;;;148.13;45.60;;;;;;;3.57;100.00;102915.84;4917547;29;20054;-71
2021/03/01 06:54:31;;;;;;;144.25;42.50;;;;;;;3.62;100.00;102902.53;4913337;29;20028;-70
2021/03/01 06:56:58;;;;;;;149.98;43.40;;;;;;;3.75;100.00;102912.28;4935932;29;20090;-71
2021/03/01 06:59:24;;;;;;;151.82;46.20;;;;;;;3.76;100.00;102915.81;4930498;29;20035;-71
2021/03/01 07:01:53;;;;;;;164.27;47.63;;;;;;;3.76;100.00;102922.03;4928399;29;20059;-71
2021/03/01 07:04:23;;;;;;;157.82;48.25;;;;;;;3.76;100.00;102914.06;4924205;29;20039;-71
2021/03/01 07:06:50;;;;;;;163.18;49.28;;;;;;;3.71;100.00;102913.13;4931445;29;20067;-71
2021/03/01 07:09:18;;;;;;;164.20;48.15;;;;;;;3.73;100.00;102911.38;4914203;29;20054;-71
2021/03/01 07:11:44;;;;;;;156.13;48.28;;;;;;;3.73;100.00;102908.72;4900434;29;20043;-70
2021/03/01 07:14:12;;;;;;;157.35;46.78;;;;;;;3.71;100.00;102913.13;4912637;29;20078;-70
2021/03/01 07:16:46;;;;;;;169.75;48.20;;;;;;;3.77;100.00;102910.47;4931486;29;20050;-70
2021/03/01 07:19:20;;;;;;;154.57;46.33;;;;;;;3.82;100.00;102915.81;4929916;29;20063;-71
2021/03/01 07:21:54;;;;;;;153.57;47.58;;;;;;;3.86;100.00;102909.59;4928783;29;20040;-71
2021/03/01 07:24:22;;;;;;;143.77;45.42;;;;;;;3.77;100.00;102913.13;4913677;29;20079;-71
2021/03/01 07:26:48;;;;;;;121.28;40.03;;;;;;;3.92;100.00;102923.75;4930748;29;20104;-70
2021/03/01 07:29:16;;;;;;;122.38;37.25;;;;;;;3.90;100.00;102916.66;4893620;29;20044;-71
2021/03/01 07:31:48;;;;;;;105.15;34.85;;;;;;;4.05;100.00;102925.50;4915259;29;20032;-71
2021/03/01 07:34:16;;;;;;;110.53;36.30;;;;;;;4.08;100.00;102924.59;4916169;29;20717;-71
2021/03/01 07:36:41;;;;;;;107.28;35.90;;;;;;;4.07;100.00;102917.53;4930538;29;20023;-71
2021/03/01 07:39:08;;;;;;;119.00;38.58;;;;;;;4.04;100.00;102918.41;4929353;29;20450;-70
2021/03/01 07:41:34;;;;;;;141.45;40.60;;;;;;;4.07;100.00;102915.72;4940126;29;20228;-71
2021/03/01 07:44:01;;;;;;;126.78;39.42;;;;;;;4.19;100.00;102905.97;4904370;29;20042;-71
2021/03/01 07:46:30;;;;;;;116.57;39.25;;;;;;;4.21;100.00;102912.16;4915323;29;20065;-71
2021/03/01 07:48:55;;;;;;;106.82;37.25;;;;;;;4.24;100.00;102914.81;4934814;29;20441;-71
2021/03/01 07:51:49;;;;;;;133.48;44.85;;;;;;;4.18;100.00;102909.53;4931219;29;20039;-71
2021/03/01 07:54:18;;;;;;;99.53;36.72;;;;;;;4.21;100.00;102915.69;4921894;29;20058;-71
2021/03/01 07:56:45;;;;;;;87.22;31.63;;;;;;;4.36;100.00;102914.78;4914768;29;20040;-71
2021/03/01 07:59:12;;;;;;;71.18;27.17;;;;;;;4.51;100.00;102920.03;4918648;29;20062;-71
2021/03/01 08:01:39;;;;;;;67.82;27.35;;;;;;;4.57;100.00;102920.00;4929217;29;20044;-70
2021/03/01 08:04:05;;;;;;;74.60;27.30;;;;;;;4.60;100.00;102920.00;4914573;29;20039;-71
2021/03/01 08:06:55;;;;;;;63.13;24.77;;;;;;;4.71;100.00;102920.81;4928602;29;20841;-71
2021/03/01 08:09:43;;;;;;;61.53;24.30;;;;;;;4.71;100.00;102915.50;4926777;29;20423;-71
2021/03/01 08:12:10;;;;;;;60.35;24.48;;;;;;;4.70;100.00;102916.38;4939571;29;20023;-70
2021/03/01 08:14:50;;;;;;;62.13;26.58;;;;;;;4.65;100.00;102918.19;4930808;29;20043;-72
2021/03/01 08:17:31;;;;;;;67.88;26.25;;;;;;;4.68;100.00;102923.50;4908957;29;20654;-70
2021/03/01 08:20:23;;;;;;;66.70;25.70;;;;;;;4.69;100.00;102917.28;4929295;29;20051;-70
2021/03/01 08:25:54;;;;;;;80.10;31.40;;;;;;;4.78;100.00;102909.25;4917023;29;20083;-70
2021/03/01 08:28:22;;;;;;;88.32;32.63;;;;;;;4.72;100.00;102917.28;4930360;29;20040;-72
2021/03/01 08:30:52;;;;;;;91.68;34.20;;;;;;;4.77;100.00;102907.50;4930762;29;20047;-71
2021/03/01 08:33:18;;;;;;;93.00;32.15;;;;;;;4.76;100.00;102915.47;4928856;29;20066;-70
2021/03/01 08:35:46;;;;;;;88.80;34.60;;;;;;;4.81;100.00;102906.56;4931200;29;20044;-71
2021/03/01 08:38:13;;;;;;;92.35;33.53;;;;;;;4.95;100.00;102906.50;4931775;29;20035;-70
2021/03/01 08:40:53;;;;;;;94.38;33.75;;;;;;;5.07;100.00;102905.53;4930154;29;20051;-72
2021/03/01 08:43:39;;;;;;;86.22;32.20;;;;;;;5.19;100.00;102905.44;4913302;29;20635;-72
2021/03/01 08:46:06;;;;;;;71.07;28.25;;;;;;;5.23;100.00;102912.53;4930533;29;20043;-71
2021/03/01 08:48:38;;;;;;;78.82;28.88;;;;;;;5.23;100.00;102907.19;4930119;29;20032;-71
2021/03/01 08:51:05;;;;;;;85.90;30.40;;;;;;;5.24;100.00;102911.63;4928995;29;20031;-71
2021/03/01 08:53:30;;;;;;;86.68;30.67;;;;;;;5.28;100.00;102916.03;4912557;29;20042;-70
2021/03/01 08:55:57;;;;;;;69.03;28.00;;;;;;;5.45;100.00;102910.56;4928740;28;20402;-71
2021/03/01 08:58:24;;;;;;;67.25;26.67;;;;;;;5.72;100.00;102912.13;4923675;29;20502;-71
2021/03/01 09:00:55;;;;;;;63.08;25.75;;;;;;;5.85;100.00;102909.34;4919317;29;21817;-71
2021/03/01 09:03:28;;;;;;;61.15;25.27;;;;;;;5.93;100.00;102911.94;4928920;29;20067;-71
2021/03/01 09:06:02;;;;;;;76.80;30.50;;;;;;;6.02;100.00;102915.41;4929828;29;20042;-70
2021/03/01 09:08:33;;;;;;;74.03;30.00;;;;;;;5.93;100.00;102918.16;4924036;29;20039;-72
2021/03/01 09:11:00;;;;;;;61.63;25.65;;;;;;;6.01;100.00;102915.41;4912349;29;20130;-70
2021/03/01 09:13:28;;;;;;;64.30;25.10;;;;;;;5.98;100.00;102910.13;4919142;29;20051;-73
2021/03/01 09:15:54;;;;;;;70.82;26.17;;;;;;;5.96;100.00;102906.59;4930308;29;20163;-70
2021/03/01 09:18:20;;;;;;;54.63;23.52;;;;;;;6.06;100.00;102914.47;4934198;29;20042;-70
2021/03/01 09:20:56;;;;;;;48.30;20.98;;;;;;;6.28;100.00;102914.22;4935215;29;20043;-70
2021/03/01 09:23:32;;;;;;;58.85;22.63;;;;;;;6.28;100.00;102904.44;4921530;29;20731;-70
2021/03/01 09:25:57;;;;;;;49.50;21.52;;;;;;;6.43;100.00;102914.91;4935185;29;20039;-71
2021/03/01 09:28:37;;;;;;;50.92;21.95;;;;;;;6.63;100.00;102912.00;4908857;29;20047;-71
2021/03/01 09:31:08;;;;;;;51.95;22.85;;;;;;;6.79;100.00;102918.00;4932904;29;20031;-71
2021/03/01 09:33:35;;;;;;;66.45;28.75;;;;;;;6.99;100.00;102910.63;4928454;29;20035;-71
2021/03/01 09:36:00;;;;;;;67.00;27.65;;;;;;;7.02;100.00;102915.03;4940124;29;20673;-71
2021/03/01 09:38:27;;;;;;;49.22;22.88;;;;;;;7.18;100.00;102912.09;4917167;29;20039;-72
2021/03/01 09:41:05;;;;;;;48.20;20.85;;;;;;;7.36;100.00;102910.94;4935359;29;20485;-71
2021/03/01 09:43:34;;;;;;;50.75;21.95;;;;;;;7.37;100.00;102906.47;4919068;29;20035;-72
2021/03/01 09:46:01;;;;;;;50.90;22.35;;;;;;;7.23;99.56;102902.22;4932074;29;20371;-70
2021/03/01 09:48:30;;;;;;;49.25;23.02;;;;;;;7.29;99.47;102893.22;4926580;29;20450;-71
2021/03/01 09:50:57;;;;;;;59.95;26.38;;;;;;;7.42;100.00;102901.94;4937469;29;20082;-71
2021/03/01 09:53:24;;;;;;;56.95;26.08;;;;;;;7.28;98.07;102896.84;4943189;29;20742;-72
2021/03/01 09:55:53;;;;;;;62.92;26.17;;;;;;;7.14;97.19;102904.16;4918565;29;20099;-72
2021/03/01 09:58:33;;;;;;;60.22;27.42;;;;;;;7.07;97.93;102891.81;4915595;29;20039;-71
2021/03/01 10:01:12;;;;;;;73.15;31.50;;;;;;;7.07;99.33;102890.03;4931842;29;20051;-72
2021/03/01 10:03:49;;;;;;;70.57;32.20;;;;;;;7.26;97.31;102896.84;4940243;29;20042;-71
2021/03/01 10:06:16;;;;;;;91.57;35.35;;;;;;;7.30;96.85;102887.88;4933684;29;20051;-71
2021/03/01 10:08:43;;;;;;;82.40;36.72;;;;;;;7.45;97.79;102884.06;4923349;29;20093;-72
2021/03/01 10:11:23;;;;;;;82.00;37.47;;;;;;;7.60;97.66;102882.91;4910336;29;20036;-71
2021/03/01 10:13:50;;;;;;;85.97;36.03;;;;;;;7.80;97.10;102883.44;4924719;29;20483;-71
2021/03/01 10:16:33;;;;;;;89.43;37.33;;;;;;;7.88;96.18;102875.28;4926595;29;20130;-71
2021/03/01 10:19:22;;;;;;;84.40;36.53;;;;;;;8.00;96.68;102881.28;4934317;29;20035;-71
2021/03/01 10:21:48;;;;;;;85.60;37.55;;;;;;;8.11;97.04;102879.28;4935378;29;20036;-70
2021/03/01 10:24:15;;;;;;;73.63;34.67;;;;;;;8.18;91.72;102884.50;4915595;29;20559;-71
2021/03/01 10:26:57;;;;;;;71.93;34.80;;;;;;;8.00;92.61;102878.63;4920010;29;20479;-71
2021/03/01 10:29:34;;;;;;;59.10;27.30;;;;;;;7.95;93.39;102882.28;4929810;29;20127;-70
2021/03/01 10:32:01;;;;;;;57.28;26.30;;;;;;;8.01;93.66;102880.38;4929515;29;20067;-71
2021/03/01 10:34:36;;;;;;;49.08;23.15;;;;;;;8.05;93.50;102883.88;4936721;29;20039;-70
2021/03/01 10:37:03;;;;;;;55.17;22.40;;;;;;;8.21;92.41;102882.63;4928470;29;20463;-71
2021/03/01 10:39:37;;;;;;;54.20;22.70;;;;;;;8.25;91.22;102879.00;4894644;29;20086;-73
2021/03/01 10:42:12;;;;;;;48.67;21.60;;;;;;;8.28;92.17;102880.72;4922957;29;20036;-72
2021/03/01 10:44:44;;;;;;;46.50;19.13;;;;;;;8.33;91.49;102881.56;4928908;29;20067;-71
2021/03/01 10:47:22;;;;;;;39.15;15.98;;;;;;;8.43;88.93;102875.09;4929039;29;20369;-71
2021/03/01 10:50:13;;;;;;;36.42;16.40;;;;;;;8.67;87.81;102882.59;4927134;29;20558;-72
2021/03/01 10:52:39;;;;;;;39.75;18.55;;;;;;;8.68;86.82;102872.78;4911562;29;20090;-71
2021/03/01 10:55:05;;;;;;;38.08;16.70;;;;;;;8.58;89.10;102881.94;4930224;29;20063;-71
2021/03/01 10:57:31;;;;;;;40.20;18.10;;;;;;;8.73;88.73;102871.75;4931191;29;20107;-71
2021/03/01 10:59:59;;;;;;;33.67;16.10;;;;;;;8.73;86.48;102882.47;4930056;29;20461;-71
2021/03/01 11:02:25;;;;;;;33.55;16.35;;;;;;;8.84;88.22;102875.06;4936511;29;20502;-71
2021/03/01 11:04:51;;;;;;;33.55;15.45;;;;;;;8.86;88.62;102862.53;4934351;29;20035;-70
2021/03/01 11:07:17;;;;;;;28.00;14.65;;;;;;;9.07;85.61;102866.53;4930518;29;20044;-72
2021/03/01 11:09:42;;;;;;;36.70;15.52;;;;;;;9.05;84.71;102867.47;4926269;29;20039;-72
2021/03/01 11:12:08;;;;;;;32.90;15.25;;;;;;;9.05;84.90;102862.09;4912683;29;20031;-72
2021/03/01 11:14:34;;;;;;;35.85;15.98;;;;;;;9.10;85.16;102860.19;4939676;29;20039;-70
2021/03/01 11:16:59;;;;;;;32.92;14.35;;;;;;;9.24;84.98;102868.78;4941538;29;20036;-70
2021/03/01 11:19:25;;;;;;;28.40;13.25;;;;;;;9.31;82.78;102859.69;4919480;29;20043;-72